createdAt,value
2022-11-30T00:04:25.213Z,0.03
2022-11-30T00:06:23.701Z,0.02
2022-11-30T00:48:52.544Z,0.03
2022-11-30T00:54:33.634Z,0.02
2022-11-30T00:57:03.062Z,0.04
2022-11-30T00:59:17.930Z,0.06
2022-11-30T01:01:18.981Z,0.03
2022-11-30T01:04:08.749Z,0.02
2022-11-30T02:17:42.946Z,0.03
2022-11-30T02:20:33.574Z,0.02
2022-11-30T02:52:48.042Z,0.03
2022-11-30T02:55:28.790Z,0.02
2022-11-30T02:57:55.609Z,0.03
2022-11-30T03:00:08.152Z,0.02
2022-11-30T03:21:58.131Z,0.03
2022-11-30T03:30:13.804Z,0.02
2022-11-30T04:29:00.320Z,0.03
2022-11-30T05:03:50.066Z,0.04
2022-11-30T05:41:05.661Z,0.05
2022-11-30T05:43:26.131Z,0.04
2022-11-30T05:53:35.145Z,0.05
2022-11-30T06:03:06.063Z,0.06
2022-11-30T06:10:22.252Z,0.05
2022-11-30T06:13:01.343Z,0.06
2022-11-30T06:15:26.249Z,0.07
2022-11-30T06:20:36.736Z,0.08
2022-11-30T06:23:21.760Z,0.1
2022-11-30T06:25:52.774Z,0.15
2022-11-30T06:28:09.748Z,0.18
2022-11-30T06:30:12.546Z,0.25
2022-11-30T06:33:03.874Z,0.36
2022-11-30T06:35:41.333Z,0.55
2022-11-30T06:38:04.708Z,0.74
2022-11-30T06:40:13.546Z,0.92
2022-11-30T06:43:11.131Z,1.37
2022-11-30T06:45:54.527Z,1.9
2022-11-30T06:48:23.697Z,2.7
2022-11-30T06:50:38.646Z,3.16
2022-11-30T06:52:39.582Z,3.38
2022-11-30T06:55:29.040Z,4.29
2022-11-30T06:58:04.335Z,6.06
2022-11-30T07:00:25.697Z,8.69
2022-11-30T07:02:32.372Z,12.46
2022-11-30T07:05:27.968Z,13.68
2022-11-30T07:08:09.614Z,16.62
2022-11-30T07:10:37.040Z,18.77
2022-11-30T07:12:50.327Z,23.39
2022-11-30T07:14:49.925Z,26.74
2022-11-30T07:17:37.377Z,30.41
2022-11-30T07:19:51.869Z,36.03
2022-11-30T07:21:52.145Z,36.33
2022-11-30T07:24:40.874Z,40.3
2022-11-30T07:27:15.712Z,43.56
2022-11-30T07:29:36.262Z,46.22
2022-11-30T07:31:42.665Z,42.56
2022-11-30T07:34:37.682Z,43.56
2022-11-30T07:37:18.523Z,51.8
2022-11-30T07:39:45.224Z,53.68
2022-11-30T07:41:57.950Z,53.74
2022-11-30T07:43:56.481Z,57.8
2022-11-30T07:46:43.490Z,63.88
2022-11-30T07:49:16.369Z,64.36
2022-11-30T07:51:35.198Z,68.46
2022-11-30T07:53:39.416Z,67.86
2022-11-30T07:56:32.511Z,78.34
2022-11-30T07:59:11.685Z,79.2
2022-11-30T08:01:36.687Z,86.12
2022-11-30T08:03:47.330Z,106.44
2022-11-30T08:06:46.828Z,149.44
2022-11-30T08:09:32.163Z,188.1
2022-11-30T08:12:03.280Z,188.7
2022-11-30T08:14:20.218Z,157.08
2022-11-30T08:16:23.230Z,139.92
2022-11-30T08:19:14.653Z,128.92
2022-11-30T08:21:51.943Z,128.88
2022-11-30T08:24:15.325Z,136.44
2022-11-30T08:26:24.402Z,158.4
2022-11-30T08:29:22.035Z,183.8
2022-11-30T08:32:05.624Z,170.8
2022-11-30T08:34:35.025Z,157.96
2022-11-30T08:36:51.904Z,159.8
2022-11-30T08:38:51.578Z,160.96
2022-11-30T08:41:41.290Z,174.9
2022-11-30T08:44:16.898Z,168.4
2022-11-30T08:46:51.763Z,148.6
2022-11-30T08:48:45.229Z,179.6
2022-11-30T08:52:08.565Z,172.8
2022-11-30T08:54:22.815Z,180
2022-11-30T08:56:50.485Z,219.6
2022-11-30T08:59:03.964Z,266.5
2022-11-30T09:01:03.249Z,273.6
2022-11-30T09:03:51.317Z,244.8
2022-11-30T09:06:25.128Z,230.9
2022-11-30T09:08:44.757Z,204.4
2022-11-30T09:10:50.383Z,215.4
2022-11-30T09:13:44.764Z,237.6
2022-11-30T09:16:24.897Z,246.5
2022-11-30T09:18:50.651Z,243
2022-11-30T09:21:02.499Z,250.5
2022-11-30T09:23:00.127Z,244.6
2022-11-30T09:25:46.285Z,266.3
2022-11-30T09:28:18.426Z,217.6
2022-11-30T09:30:36.425Z,210.7
2022-11-30T09:32:40.072Z,247.5
2022-11-30T09:35:32.468Z,334
2022-11-30T09:38:10.316Z,360.9
2022-11-30T09:40:35.742Z,416.3
2022-11-30T09:42:44.321Z,480.8
2022-11-30T09:45:42.895Z,629.9
2022-11-30T09:48:27.145Z,725.1
2022-11-30T09:50:57.318Z,747.8
2022-11-30T09:53:13.398Z,769.2
2022-11-30T09:55:15.376Z,779.8
2022-11-30T09:58:05.783Z,599.6
2022-11-30T10:00:42.285Z,578
2022-11-30T10:03:04.694Z,389.9
2022-11-30T10:05:12.689Z,459.5
2022-11-30T10:08:09.510Z,423.8
2022-11-30T10:10:52.178Z,313.1
2022-11-30T10:13:20.591Z,294.1
2022-11-30T10:15:34.771Z,284.1
2022-11-30T10:17:34.947Z,283.4
2022-11-30T10:20:23.687Z,306.1
2022-11-30T10:22:58.174Z,281.2
2022-11-30T10:25:18.740Z,298.8
2022-11-30T10:27:25.094Z,282.8
2022-11-30T10:30:19.516Z,235.8
2022-11-30T10:33:00.314Z,219.3
2022-11-30T10:35:26.988Z,209.1
2022-11-30T10:37:39.459Z,191.7
2022-11-30T10:39:37.949Z,187.2
2022-11-30T10:42:24.984Z,206.9
2022-11-30T10:44:57.819Z,215.4
2022-11-30T10:47:16.416Z,194.4
2022-11-30T10:49:21.011Z,172
2022-11-30T10:52:14.146Z,156.16
2022-11-30T10:54:53.084Z,145.88
2022-11-30T10:57:18.091Z,150.48
2022-11-30T10:59:28.911Z,153.32
2022-11-30T11:02:28.209Z,167.6
2022-11-30T11:05:13.527Z,181.9
2022-11-30T11:07:44.665Z,204.2
2022-11-30T11:10:01.476Z,235.3
2022-11-30T11:12:04.435Z,255.9
2022-11-30T11:14:55.903Z,271.8
2022-11-30T11:17:33.162Z,292.2
2022-11-30T11:19:56.168Z,324.8
2022-11-30T11:22:04.863Z,329.6
2022-11-30T11:25:02.384Z,296
2022-11-30T11:27:45.745Z,264.8
2022-11-30T11:30:15.193Z,276.6
2022-11-30T11:32:30.408Z,308.7
2022-11-30T11:34:31.386Z,358
2022-11-30T11:37:21.143Z,483.8
2022-11-30T11:39:56.713Z,692.1
2022-11-30T11:42:21.883Z,788.1
2022-11-30T11:44:25.302Z,751.6
2022-11-30T11:47:21.166Z,642.2
2022-11-30T11:50:02.902Z,659.8
2022-11-30T11:52:30.330Z,739.8
2022-11-30T11:54:43.821Z,809.2
2022-11-30T11:56:43.082Z,757.1
2022-11-30T11:59:32.592Z,705.2
2022-11-30T12:02:04.781Z,604.8
2022-11-30T12:04:24.375Z,521.9
2022-11-30T12:06:29.769Z,531.2
2022-11-30T12:09:24.003Z,581.1
2022-11-30T12:12:03.967Z,589.9
2022-11-30T12:14:29.331Z,558
2022-11-30T12:16:41.086Z,491.8
2022-11-30T12:18:38.635Z,477.7
2022-11-30T12:21:24.698Z,452.3
2022-11-30T12:23:56.538Z,497.7
2022-11-30T12:26:14.361Z,466.5
2022-11-30T12:28:18.031Z,431
2022-11-30T12:31:10.283Z,474.4
2022-11-30T12:33:48.519Z,433.2
2022-11-30T12:36:12.563Z,430.8
2022-11-30T12:38:22.502Z,455.6
2022-11-30T12:41:20.870Z,440.6
2022-11-30T12:44:05.216Z,385.2
2022-11-30T12:46:35.376Z,398.2
2022-11-30T12:48:51.312Z,414.4
2022-11-30T12:50:53.278Z,332.9
2022-11-30T12:53:43.811Z,321.6
2022-11-30T12:56:20.091Z,257.8
2022-11-30T12:58:42.369Z,236.3
2022-11-30T13:00:50.546Z,258.4
2022-11-30T13:03:47.049Z,281.6
2022-11-30T13:06:29.245Z,239.9
2022-11-30T13:08:57.583Z,252.8
2022-11-30T13:11:11.710Z,272.1
2022-11-30T13:13:11.904Z,279.8
2022-11-30T13:16:00.644Z,262
2022-11-30T13:18:35.104Z,278.3
2022-11-30T13:20:55.474Z,290.9
2022-11-30T13:23:01.701Z,329.7
2022-11-30T13:26:08.806Z,379.5
2022-11-30T13:28:36.985Z,372.4
2022-11-30T13:31:03.615Z,437.9
2022-11-30T13:33:15.976Z,455.6
2022-11-30T13:35:14.692Z,424.4
2022-11-30T13:38:20.637Z,460.4
2022-11-30T13:40:33.885Z,394.7
2022-11-30T13:42:52.565Z,435.3
2022-11-30T13:44:57.038Z,481.4
2022-11-30T13:47:50.116Z,390.5
2022-11-30T13:50:29.081Z,341.6
2022-11-30T13:52:53.809Z,345.4
2022-11-30T13:55:04.506Z,282.7
2022-11-30T13:58:03.380Z,277.5
2022-11-30T14:00:48.407Z,258.5
2022-11-30T14:03:19.440Z,286.7
2022-11-30T14:05:36.332Z,297.2
2022-11-30T14:07:39.068Z,307.3
2022-11-30T14:10:30.427Z,291.8
2022-11-30T14:13:07.648Z,242.9
2022-11-30T14:15:30.646Z,241.3
2022-11-30T14:17:39.653Z,227.2
2022-11-30T14:20:38.066Z,248.7
2022-11-30T14:23:20.438Z,241.8
2022-11-30T14:25:49.547Z,213.5
2022-11-30T14:28:04.665Z,178.4
2022-11-30T14:30:05.679Z,161.6
2022-11-30T14:32:55.003Z,136.52
2022-11-30T14:35:30.497Z,116.64
2022-11-30T14:37:51.765Z,111.76
2022-11-30T14:39:58.832Z,106.52
2022-11-30T14:42:54.646Z,96.8
2022-11-30T14:45:36.271Z,86.76
2022-11-30T14:48:03.678Z,77.72
2022-11-30T14:50:16.444Z,68.56
2022-11-30T14:52:15.616Z,62.58
2022-11-30T14:55:03.280Z,51.9
2022-11-30T14:57:36.853Z,44.18
2022-11-30T14:59:56.343Z,40.53
2022-11-30T15:02:01.775Z,38.01
2022-11-30T15:04:55.480Z,32.42
2022-11-30T15:07:35.419Z,28.93
2022-11-30T15:10:00.987Z,27.25
2022-11-30T15:12:12.436Z,27.62
2022-11-30T15:14:09.986Z,26.66
2022-11-30T15:16:56.016Z,22.86
2022-11-30T15:19:27.882Z,20.88
2022-11-30T15:21:45.577Z,17.12
2022-11-30T15:23:51.327Z,14.86
2022-11-30T15:26:41.442Z,11.76
2022-11-30T15:29:19.427Z,9.86
2022-11-30T15:31:43.518Z,8.44
2022-11-30T15:33:53.275Z,7.23
2022-11-30T15:36:51.574Z,4.93
2022-11-30T15:39:35.882Z,3.01
2022-11-30T15:42:05.556Z,2.05
2022-11-30T15:44:21.358Z,1.45
2022-11-30T15:46:23.278Z,1.2
2022-11-30T15:49:13.691Z,0.78
2022-11-30T15:51:54.560Z,0.5
2022-11-30T15:54:11.916Z,0.34
2022-11-30T15:56:19.999Z,0.31
2022-11-30T15:59:16.557Z,0.3
2022-11-30T16:01:58.888Z,0.27
2022-11-30T16:04:27.179Z,0.24
2022-11-30T16:11:29.938Z,0.19
2022-11-30T16:14:04.506Z,0.15
2022-11-30T16:16:24.796Z,0.17
2022-11-30T16:18:31.150Z,0.18
2022-11-30T16:21:25.954Z,0.16
2022-11-30T16:24:06.609Z,0.19
2022-11-30T16:26:50.334Z,0.18
2022-11-30T16:28:45.507Z,0.13
2022-11-30T16:36:02.768Z,0.14
2022-11-30T16:48:22.258Z,0.13
2022-11-30T16:53:32.179Z,0.12
2022-11-30T16:56:17.234Z,0.1
2022-11-30T16:58:48.036Z,0.11
2022-11-30T17:01:04.940Z,0.09
2022-11-30T17:03:07.648Z,0.12
2022-11-30T17:05:58.825Z,0.11
2022-11-30T17:08:36.052Z,0.12
2022-11-30T17:13:07.810Z,0.13
2022-11-30T17:16:05.303Z,0.1
2022-11-30T17:18:48.620Z,0.09
2022-11-30T17:21:17.742Z,0.11
2022-11-30T17:23:32.728Z,0.1
2022-11-30T17:25:33.140Z,0.11
2022-11-30T17:28:22.544Z,0.15
2022-11-30T17:30:57.787Z,0.13
2022-11-30T17:33:18.931Z,0.12
2022-11-30T17:35:25.981Z,0.11
2022-11-30T17:38:21.481Z,0.1
2022-11-30T17:54:44.950Z,0.11
2022-11-30T17:57:33.488Z,0.1
2022-11-30T18:07:30.034Z,0.11
2022-11-30T18:14:50.401Z,0.09
2022-11-30T18:26:31.255Z,0.07
2022-11-30T18:34:28.301Z,0.09
2022-11-30T18:36:39.062Z,0.1
2022-11-30T18:39:38.549Z,0.08
2022-11-30T18:42:23.845Z,0.09
2022-11-30T18:47:11.761Z,0.07
2022-11-30T18:52:06.015Z,0.08
2022-11-30T18:54:43.309Z,0.07
2022-11-30T18:59:15.641Z,0.06
2022-11-30T19:02:13.137Z,0.07
2022-11-30T19:07:26.051Z,0.06
2022-11-30T19:17:07.202Z,0.07
2022-11-30T19:19:28.489Z,0.05
2022-11-30T19:21:35.871Z,0.06
2022-11-30T19:31:54.653Z,0.05
2022-11-30T20:01:07.687Z,0.04
2022-11-30T20:05:29.254Z,0.05
2022-11-30T20:08:21.663Z,0.06
2022-11-30T20:10:59.870Z,0.05
2022-11-30T20:15:33.995Z,0.04
2022-11-30T20:35:54.543Z,0.05
2022-11-30T20:40:59.501Z,0.04
2022-11-30T20:43:42.144Z,0.05
2022-11-30T20:46:10.591Z,0.04
2022-11-30T20:48:24.818Z,0.05
2022-11-30T20:50:25.069Z,0.06
2022-11-30T20:53:13.437Z,0.04
2022-11-30T21:08:17.366Z,0.05
2022-11-30T21:10:29.849Z,0.04
2022-11-30T21:15:15.335Z,0.05
2022-11-30T21:22:11.396Z,0.04
2022-11-30T23:29:09.151Z,0.03
2022-11-30T23:33:39.537Z,0.04
